Time;durP1;ratioP1;P1;durP2;ratioP2;P2;SDS_P1;SDS_P2;PMS_P1;PMS_P2;Temp;Humidity;BMP_temperature;BMP_pressure;BME280_temperature;BME280_humidity;BME280_pressure;Samples;Min_cycle;Max_cycle;Signal;HPM_P1;HPM_P2
2022/05/22 00:02:13;;;;;;;0.93;0.93;;;11.90;99.90;;;;;;5011536;28;20297;-68
2022/05/22 00:04:39;;;;;;;1.80;1.23;;;11.90;99.90;;;;;;5011184;28;20183;-69
2022/05/22 00:07:05;;;;;;;2.03;1.00;;;11.90;99.90;;;;;;5011341;28;20199;-67
2022/05/22 00:09:31;;;;;;;2.30;1.07;;;11.80;99.90;;;;;;5011421;28;20225;-67
2022/05/22 00:11:57;;;;;;;3.57;1.20;;;11.70;99.90;;;;;;5010895;28;20514;-68
2022/05/22 00:14:25;;;;;;;3.60;1.10;;;11.70;99.90;;;;;;5011194;28;20188;-67
2022/05/22 00:16:51;;;;;;;2.10;1.00;;;11.70;99.90;;;;;;5010923;28;20427;-67
2022/05/22 00:19:21;;;;;;;2.00;1.10;;;11.70;99.90;;;;;;5011246;28;20784;-68
2022/05/22 00:21:47;;;;;;;2.73;1.20;;;11.80;99.90;;;;;;5011485;28;20415;-67
2022/05/22 00:24:13;;;;;;;0.90;0.90;;;11.80;99.90;;;;;;5010978;28;20886;-68
2022/05/22 00:26:39;;;;;;;2.63;1.33;;;11.70;99.90;;;;;;5010634;28;20491;-66
2022/05/22 00:29:05;;;;;;;1.13;0.90;;;11.80;99.90;;;;;;5011416;28;20894;-67
2022/05/22 00:31:31;;;;;;;1.63;1.17;;;11.80;99.90;;;;;;5011201;28;20486;-68
2022/05/22 00:33:57;;;;;;;3.60;1.50;;;11.80;99.90;;;;;;5011162;28;20498;-67
2022/05/22 00:36:23;;;;;;;1.03;1.00;;;11.80;99.90;;;;;;5010805;28;20562;-68
2022/05/22 00:38:48;;;;;;;1.50;1.40;;;11.70;99.90;;;;;;5011017;28;20168;-67
2022/05/22 00:41:14;;;;;;;1.83;1.20;;;11.80;99.90;;;;;;5013838;28;20471;-68
2022/05/22 00:43:48;;;;;;;1.10;1.00;;;11.70;99.90;;;;;;5014630;28;20246;-68
2022/05/22 00:46:15;;;;;;;1.90;1.13;;;11.70;99.90;;;;;;5014531;28;20665;-68
2022/05/22 00:48:43;;;;;;;1.67;0.90;;;11.80;99.90;;;;;;5014639;28;20514;-69
2022/05/22 00:51:17;;;;;;;1.30;0.93;;;11.70;99.90;;;;;;5014496;28;20437;-68
2022/05/22 00:53:48;;;;;;;1.30;1.20;;;11.70;99.90;;;;;;5014519;28;20438;-68
2022/05/22 00:56:19;;;;;;;0.80;0.80;;;11.70;99.90;;;;;;5014141;28;20427;-67
2022/05/22 00:58:46;;;;;;;1.47;0.97;;;11.70;99.90;;;;;;5014834;28;20418;-69
2022/05/22 01:01:11;;;;;;;3.20;1.20;;;11.60;99.90;;;;;;5014335;28;20411;-68
2022/05/22 01:03:38;;;;;;;1.30;1.20;;;11.60;99.90;;;;;;5011576;28;21035;-67
2022/05/22 01:06:09;;;;;;;2.00;1.03;;;11.60;99.90;;;;;;5013914;28;20634;-68
2022/05/22 01:08:39;;;;;;;1.07;0.93;;;11.60;99.90;;;;;;5014284;28;20414;-67
2022/05/22 01:11:14;;;;;;;1.50;0.90;;;11.50;99.90;;;;;;5014121;28;20419;-67
2022/05/22 01:13:50;;;;;;;3.60;1.50;;;11.50;99.90;;;;;;5014144;28;20430;-68
2022/05/22 01:16:15;;;;;;;1.10;1.00;;;11.40;99.90;;;;;;5013875;28;20442;-68
2022/05/22 01:18:47;;;;;;;2.10;1.10;;;11.40;99.90;;;;;;5014198;28;21050;-68
2022/05/22 01:21:19;;;;;;;1.30;1.20;;;11.30;99.90;;;;;;5014274;28;20639;-67
2022/05/22 01:23:46;;;;;;;3.10;1.43;;;11.30;99.90;;;;;;5012513;28;20415;-67
2022/05/22 01:26:12;;;;;;;1.10;0.90;;;11.20;99.90;;;;;;5013543;28;20459;-67
2022/05/22 01:28:37;;;;;;;1.17;1.00;;;11.20;99.90;;;;;;5013930;28;20924;-67
2022/05/22 01:31:03;;;;;;;1.30;1.00;;;11.20;99.90;;;;;;5013858;28;20418;-66
2022/05/22 01:33:29;;;;;;;1.10;1.00;;;11.20;99.90;;;;;;5013740;28;20169;-66
2022/05/22 01:35:55;;;;;;;4.90;1.10;;;11.10;99.90;;;;;;5013372;28;20427;-66
2022/05/22 01:38:20;;;;;;;1.57;1.03;;;11.10;99.90;;;;;;5013525;28;20199;-66
2022/05/22 01:40:46;;;;;;;1.63;1.30;;;11.00;99.90;;;;;;5013502;28;20661;-67
2022/05/22 01:43:12;;;;;;;1.37;0.83;;;11.00;99.90;;;;;;5013880;28;20413;-67
2022/05/22 01:45:41;;;;;;;5.30;1.40;;;10.90;99.90;;;;;;5013622;28;20225;-66
2022/05/22 01:48:07;;;;;;;1.63;1.00;;;10.90;99.90;;;;;;5013718;28;20568;-67
2022/05/22 01:50:33;;;;;;;1.47;1.10;;;10.90;99.90;;;;;;5014180;28;20766;-67
2022/05/22 01:52:59;;;;;;;1.50;1.30;;;10.80;99.90;;;;;;5012762;28;20515;-67
2022/05/22 01:55:24;;;;;;;4.90;1.43;;;10.80;99.90;;;;;;5012904;28;20411;-67
2022/05/22 01:57:50;;;;;;;1.63;1.20;;;10.80;99.90;;;;;;5013279;28;20192;-66
2022/05/22 02:00:19;;;;;;;2.10;0.93;;;11.00;99.90;;;;;;5013875;28;20160;-66
2022/05/22 02:02:46;;;;;;;1.60;1.20;;;10.90;99.90;;;;;;5013468;28;20230;-66
2022/05/22 02:05:12;;;;;;;1.53;1.27;;;11.00;99.90;;;;;;5012090;28;20427;-66
2022/05/22 02:10:24;;;;;;;6.70;0.90;;;11.00;99.90;;;;;;5012922;28;20626;-67
2022/05/22 02:12:51;;;;;;;1.20;1.10;;;11.00;99.90;;;;;;5013088;28;20498;-66
2022/05/22 02:15:18;;;;;;;2.27;2.17;;;10.90;99.90;;;;;;5012802;28;20407;-67
2022/05/22 02:17:43;;;;;;;2.03;1.00;;;11.00;99.90;;;;;;5012593;28;20446;-67
2022/05/22 02:20:10;;;;;;;3.33;1.43;;;11.00;99.90;;;;;;5012585;28;20411;-67
2022/05/22 02:22:40;;;;;;;8.73;1.23;;;10.90;99.90;;;;;;5012102;28;20198;-67
2022/05/22 02:25:06;;;;;;;3.77;1.30;;;11.00;99.90;;;;;;5012152;28;20426;-67
2022/05/22 02:27:32;;;;;;;3.23;2.07;;;11.10;99.90;;;;;;5011881;28;20782;-66
2022/05/22 02:29:59;;;;;;;1.50;1.40;;;11.10;99.90;;;;;;5012256;28;20403;-66
2022/05/22 02:32:24;;;;;;;1.50;1.20;;;11.10;99.90;;;;;;5012080;28;20174;-66
2022/05/22 02:34:50;;;;;;;1.07;0.97;;;11.10;99.90;;;;;;5011805;28;20865;-66
2022/05/22 02:37:15;;;;;;;1.30;1.10;;;11.10;99.90;;;;;;5012480;28;20278;-67
2022/05/22 02:39:41;;;;;;;2.37;1.40;;;11.10;99.90;;;;;;5012228;28;20187;-66
2022/05/22 02:42:07;;;;;;;2.03;1.00;;;11.10;99.90;;;;;;5011871;28;20200;-67
2022/05/22 02:44:33;;;;;;;2.40;1.67;;;11.10;99.90;;;;;;5011806;28;20650;-67
2022/05/22 02:46:58;;;;;;;1.60;1.47;;;11.00;99.90;;;;;;5012232;28;20259;-67
2022/05/22 02:49:24;;;;;;;1.73;1.50;;;11.10;99.90;;;;;;5012577;28;20813;-66
2022/05/22 02:51:49;;;;;;;1.30;1.20;;;11.00;99.90;;;;;;5011811;28;20483;-67
2022/05/22 02:54:15;;;;;;;1.10;1.10;;;11.00;99.90;;;;;;5013358;28;20231;-67
2022/05/22 02:56:41;;;;;;;1.53;1.20;;;11.00;99.90;;;;;;5013624;28;20271;-67
2022/05/22 02:59:06;;;;;;;1.03;0.90;;;11.00;99.90;;;;;;5014141;28;20180;-67
2022/05/22 03:01:32;;;;;;;4.00;1.10;;;10.90;99.90;;;;;;5013362;28;20700;-67
2022/05/22 03:03:57;;;;;;;1.43;0.97;;;10.90;99.90;;;;;;5012505;28;20650;-68
2022/05/22 03:06:38;;;;;;;1.17;1.07;;;10.90;99.90;;;;;;5012269;28;20207;-67
2022/05/22 03:09:14;;;;;;;2.90;1.20;;;10.80;99.90;;;;;;5013640;28;20708;-67
2022/05/22 03:11:41;;;;;;;5.57;1.60;;;10.80;99.90;;;;;;5013715;28;20399;-67
2022/05/22 03:14:08;;;;;;;1.67;1.23;;;10.80;99.90;;;;;;5011093;28;20418;-67
2022/05/22 03:16:34;;;;;;;1.40;1.27;;;10.80;99.90;;;;;;5011680;28;20431;-67
2022/05/22 03:19:00;;;;;;;6.20;2.30;;;10.80;99.90;;;;;;5011760;28;20494;-67
2022/05/22 03:21:29;;;;;;;1.10;1.00;;;10.80;99.90;;;;;;5011668;28;20541;-66
2022/05/22 03:23:55;;;;;;;1.10;1.00;;;10.80;99.90;;;;;;5012155;28;20407;-68
2022/05/22 03:26:21;;;;;;;2.03;1.60;;;10.80;99.90;;;;;;5010915;28;20512;-67
2022/05/22 03:28:46;;;;;;;1.50;1.23;;;10.90;99.90;;;;;;5011258;28;20164;-67
2022/05/22 03:31:12;;;;;;;4.90;1.53;;;10.90;99.90;;;;;;5011004;28;20503;-66
2022/05/22 03:33:38;;;;;;;2.30;1.23;;;11.00;99.90;;;;;;5011284;28;20187;-67
2022/05/22 03:36:05;;;;;;;1.37;1.27;;;11.00;99.90;;;;;;5011051;28;20200;-67
2022/05/22 03:38:30;;;;;;;1.53;1.43;;;11.10;99.90;;;;;;5011362;28;20180;-67
2022/05/22 03:40:56;;;;;;;4.07;2.30;;;11.10;99.90;;;;;;5011131;28;20842;-67
2022/05/22 03:43:21;;;;;;;1.40;1.30;;;11.10;99.90;;;;;;5011080;28;20181;-67
2022/05/22 03:45:47;;;;;;;1.87;1.13;;;11.20;99.90;;;;;;5010703;28;20175;-67
2022/05/22 03:48:13;;;;;;;2.10;1.23;;;11.30;99.90;;;;;;5011266;28;20185;-67
2022/05/22 03:50:38;;;;;;;1.00;1.00;;;11.20;99.90;;;;;;5011161;28;20176;-67
2022/05/22 03:53:04;;;;;;;2.30;1.53;;;11.30;99.90;;;;;;5011049;28;20439;-67
2022/05/22 03:55:30;;;;;;;2.00;1.27;;;11.40;99.90;;;;;;5010525;28;20506;-67
2022/05/22 03:57:55;;;;;;;1.83;1.50;;;11.30;99.90;;;;;;5011088;28;20182;-67
2022/05/22 04:00:23;;;;;;;5.40;1.33;;;11.30;99.90;;;;;;5010865;28;20243;-67
2022/05/22 04:02:49;;;;;;;2.03;1.33;;;11.20;99.90;;;;;;5010839;28;20168;-67
2022/05/22 04:05:14;;;;;;;4.07;1.80;;;11.30;99.90;;;;;;5010330;28;20780;-67
2022/05/22 04:07:42;;;;;;;1.57;1.27;;;11.30;99.90;;;;;;5010907;28;20232;-67
2022/05/22 04:10:10;;;;;;;2.00;1.80;;;11.30;99.90;;;;;;5010869;28;20491;-67
2022/05/22 04:12:36;;;;;;;1.60;1.40;;;11.20;99.90;;;;;;5010791;28;20406;-66
2022/05/22 04:15:04;;;;;;;5.47;1.47;;;11.20;99.90;;;;;;5012236;28;20443;-66
2022/05/22 04:17:29;;;;;;;4.47;1.00;;;11.30;99.90;;;;;;5016206;28;20984;-67
2022/05/22 04:19:55;;;;;;;2.13;1.30;;;11.30;99.90;;;;;;5014861;28;20506;-66
2022/05/22 04:22:20;;;;;;;1.33;1.10;;;11.40;99.90;;;;;;5014972;28;20528;-66
2022/05/22 04:27:30;;;;;;;2.43;1.00;;;11.40;99.90;;;;;;5014508;28;20633;-66
2022/05/22 04:29:56;;;;;;;5.40;1.30;;;11.40;99.90;;;;;;5014603;28;20439;-66
2022/05/22 04:32:21;;;;;;;3.07;1.47;;;11.40;99.90;;;;;;5014579;28;20219;-66
2022/05/22 04:34:47;;;;;;;1.43;1.33;;;11.50;99.90;;;;;;5014137;28;20255;-66
2022/05/22 04:37:12;;;;;;;1.93;1.63;;;11.60;99.90;;;;;;5014054;28;20295;-66
2022/05/22 04:39:38;;;;;;;2.00;1.00;;;11.70;99.90;;;;;;5013972;28;20191;-66
2022/05/22 04:42:04;;;;;;;2.70;1.10;;;11.70;99.90;;;;;;5014115;28;20188;-66
2022/05/22 04:44:29;;;;;;;2.40;1.40;;;12.00;99.90;;;;;;5013786;28;20198;-66
2022/05/22 04:46:55;;;;;;;2.20;1.20;;;12.10;99.90;;;;;;5013976;28;20466;-66
2022/05/22 04:49:20;;;;;;;2.17;1.37;;;12.00;99.90;;;;;;5014060;28;20177;-67
2022/05/22 04:51:46;;;;;;;5.30;1.47;;;12.20;99.90;;;;;;5013899;28;20203;-66
2022/05/22 04:54:12;;;;;;;3.53;1.73;;;12.50;99.90;;;;;;5014020;28;20603;-66
2022/05/22 04:56:38;;;;;;;1.10;1.00;;;12.60;99.90;;;;;;5013461;28;20438;-67
2022/05/22 04:59:03;;;;;;;1.20;1.10;;;12.80;99.90;;;;;;5014184;28;20169;-66
2022/05/22 05:01:29;;;;;;;2.07;1.20;;;13.20;99.90;;;;;;5013763;28;20657;-66
2022/05/22 05:03:55;;;;;;;2.17;1.80;;;13.60;99.90;;;;;;5013904;28;20172;-66
2022/05/22 05:06:20;;;;;;;2.90;1.13;;;13.60;99.90;;;;;;5013810;28;20197;-67
2022/05/22 05:08:46;;;;;;;3.10;1.40;;;13.60;99.90;;;;;;5013826;28;20209;-67
2022/05/22 05:11:11;;;;;;;6.07;1.17;;;13.70;99.90;;;;;;5013594;28;20255;-66
2022/05/22 05:13:38;;;;;;;3.27;1.33;;;13.60;99.90;;;;;;5013705;28;20657;-67
2022/05/22 05:16:06;;;;;;;3.10;1.40;;;13.40;99.90;;;;;;5013295;28;20295;-67
2022/05/22 05:18:33;;;;;;;3.33;1.10;;;14.10;99.90;;;;;;5013776;28;20561;-67
2022/05/22 05:21:02;;;;;;;1.37;1.27;;;13.80;99.90;;;;;;5013738;28;20757;-67
2022/05/22 05:23:28;;;;;;;2.60;1.30;;;13.90;99.90;;;;;;5013498;28;20409;-66
2022/05/22 05:25:54;;;;;;;1.30;1.10;;;13.90;99.90;;;;;;5012419;28;20505;-67
2022/05/22 05:28:19;;;;;;;2.60;1.30;;;14.10;99.90;;;;;;5013286;28;20422;-67
2022/05/22 05:30:45;;;;;;;3.00;1.20;;;14.20;99.90;;;;;;5013431;28;20205;-67
2022/05/22 05:33:10;;;;;;;4.10;1.50;;;13.90;99.90;;;;;;5013583;28;20173;-67
2022/05/22 05:35:37;;;;;;;3.13;1.20;;;14.10;99.90;;;;;;5013362;28;20173;-66
2022/05/22 05:38:03;;;;;;;1.33;1.07;;;13.70;99.90;;;;;;5013653;28;20178;-66
2022/05/22 05:40:28;;;;;;;4.47;1.20;;;14.00;99.90;;;;;;5013305;28;20411;-67
2022/05/22 05:42:54;;;;;;;1.83;1.33;;;14.00;99.90;;;;;;5013838;28;20418;-66
2022/05/22 05:45:20;;;;;;;1.73;1.43;;;14.30;99.90;;;;;;5013860;28;20265;-67
2022/05/22 05:47:47;;;;;;;1.37;1.27;;;13.90;99.90;;;;;;5013536;28;20205;-67
2022/05/22 05:50:14;;;;;;;0.97;0.87;;;14.50;99.90;;;;;;5013727;28;20472;-67
2022/05/22 05:52:40;;;;;;;3.63;2.10;;;15.40;99.90;;;;;;5013340;28;20938;-68
2022/05/22 05:55:06;;;;;;;3.43;1.30;;;15.40;99.90;;;;;;5012759;28;20441;-67
2022/05/22 05:57:31;;;;;;;4.40;1.50;;;15.30;99.90;;;;;;5013396;28;20217;-66
2022/05/22 05:59:57;;;;;;;1.43;1.33;;;14.00;99.90;;;;;;5013333;28;20395;-67
2022/05/22 06:02:22;;;;;;;4.20;1.30;;;14.00;99.90;;;;;;5013263;28;20688;-68
2022/05/22 06:04:48;;;;;;;3.40;1.13;;;14.40;99.90;;;;;;5012753;28;20596;-68
2022/05/22 06:07:13;;;;;;;1.60;1.30;;;14.40;99.90;;;;;;5012905;28;20308;-67
2022/05/22 06:09:39;;;;;;;3.37;1.10;;;14.30;99.90;;;;;;5012625;28;20235;-67
2022/05/22 06:12:05;;;;;;;3.23;1.20;;;14.20;99.90;;;;;;5013536;28;20271;-68
2022/05/22 06:14:31;;;;;;;1.73;1.30;;;14.80;99.90;;;;;;5012830;28;20188;-68
2022/05/22 06:16:57;;;;;;;3.03;1.27;;;14.90;99.90;;;;;;5012705;28;20436;-67
2022/05/22 06:22:07;;;;;;;2.10;1.13;;;15.40;99.90;;;;;;5012349;28;20820;-67
2022/05/22 06:24:37;;;;;;;5.37;1.33;;;16.10;99.90;;;;;;5012404;28;20411;-67
2022/05/22 06:27:03;;;;;;;3.23;1.83;;;16.70;99.90;;;;;;5012314;28;20467;-67
2022/05/22 06:29:29;;;;;;;2.03;1.10;;;16.30;99.90;;;;;;5012221;28;20408;-67
2022/05/22 06:31:54;;;;;;;1.50;1.20;;;16.40;99.90;;;;;;5012234;28;20894;-67
2022/05/22 06:34:22;;;;;;;1.93;0.90;;;16.50;99.90;;;;;;5012199;28;20199;-67
2022/05/22 06:36:48;;;;;;;6.83;1.17;;;17.40;99.90;;;;;;5012077;28;20547;-66
2022/05/22 06:41:58;;;;;;;1.10;1.00;;;18.10;99.90;;;;;;5012160;28;20404;-67
2022/05/22 06:44:23;;;;;;;1.60;1.00;;;19.30;99.90;;;;;;5011943;28;20408;-67
2022/05/22 06:46:49;;;;;;;2.17;1.20;;;18.80;99.90;;;;;;5011352;28;20200;-67
2022/05/22 06:49:14;;;;;;;2.20;0.93;;;18.70;99.90;;;;;;5011911;28;20260;-66
2022/05/22 06:51:40;;;;;;;3.83;1.00;;;19.40;99.90;;;;;;5012096;28;20485;-66
2022/05/22 06:54:05;;;;;;;3.00;1.17;;;18.90;99.90;;;;;;5011802;28;20231;-66
2022/05/22 06:56:31;;;;;;;1.60;1.13;;;18.40;99.90;;;;;;5011268;28;20667;-67
2022/05/22 06:58:56;;;;;;;2.00;1.07;;;18.50;99.90;;;;;;5011871;28;20203;-66
2022/05/22 07:01:22;;;;;;;1.77;0.87;;;18.40;99.90;;;;;;5011634;28;20180;-67
2022/05/22 07:03:47;;;;;;;1.43;1.07;;;16.70;99.90;;;;;;5011577;28;20281;-67
2022/05/22 07:06:13;;;;;;;1.97;1.00;;;16.70;99.90;;;;;;5009807;28;20211;-66
2022/05/22 07:08:38;;;;;;;1.10;1.00;;;16.20;99.90;;;;;;5010629;28;20173;-67
2022/05/22 07:13:48;;;;;;;0.90;0.90;;;17.30;99.90;;;;;;5011684;28;20179;-67
2022/05/22 07:16:13;;;;;;;1.77;1.10;;;17.30;99.90;;;;;;5011513;28;20806;-67
2022/05/22 07:18:39;;;;;;;2.77;1.77;;;17.80;99.90;;;;;;5011819;28;20599;-67
2022/05/22 07:21:04;;;;;;;3.77;1.37;;;17.70;99.90;;;;;;5011741;28;20249;-67
2022/05/22 07:23:30;;;;;;;3.57;1.40;;;17.50;99.90;;;;;;5011751;28;20531;-66
2022/05/22 07:28:29;;;;;;;1.10;0.80;;;17.50;99.90;;;;;;5029407;28;20204;-71
2022/05/22 07:30:57;;;;;;;2.90;0.97;;;17.00;99.90;;;;;;5031663;28;20469;-71
2022/05/22 07:33:22;;;;;;;1.77;1.00;;;16.30;99.90;;;;;;5031893;28;20663;-71
2022/05/22 07:35:58;;;;;;;1.37;0.93;;;16.50;99.90;;;;;;5047104;28;20450;-72
2022/05/22 07:38:24;;;;;;;1.90;1.20;;;16.70;99.90;;;;;;5012373;28;20169;-74
2022/05/22 07:40:51;;;;;;;4.97;1.70;;;16.90;99.90;;;;;;5011951;28;20407;-72
2022/05/22 07:43:17;;;;;;;2.10;1.90;;;16.70;99.90;;;;;;5010593;28;20199;-71
2022/05/22 07:45:43;;;;;;;2.60;1.83;;;16.50;99.90;;;;;;5011796;28;20842;-72
2022/05/22 07:48:09;;;;;;;2.40;1.23;;;16.60;99.90;;;;;;5011914;28;20253;-71
2022/05/22 07:50:34;;;;;;;1.10;0.97;;;16.20;99.90;;;;;;5011526;28;20918;-71
2022/05/22 07:53:00;;;;;;;1.87;1.00;;;15.70;99.90;;;;;;5011985;28;20514;-73
2022/05/22 07:55:26;;;;;;;1.27;1.00;;;15.80;99.90;;;;;;5011524;28;20170;-72
2022/05/22 07:57:51;;;;;;;1.10;0.83;;;16.10;99.90;;;;;;5010372;28;20471;-72
2022/05/22 08:00:20;;;;;;;1.83;0.80;;;16.40;99.90;;;;;;5011927;28;20175;-72
2022/05/22 08:02:46;;;;;;;1.20;0.73;;;16.40;99.90;;;;;;5011898;28;20179;-72
2022/05/22 08:05:12;;;;;;;2.80;1.60;;;15.90;99.90;;;;;;5011629;28;20413;-71
2022/05/22 08:07:38;;;;;;;2.60;1.13;;;15.80;99.90;;;;;;5011917;28;20455;-71
2022/05/22 08:10:06;;;;;;;1.27;0.80;;;15.80;99.90;;;;;;5012011;28;20901;-73
2022/05/22 08:12:47;;;;;;;1.20;1.10;;;16.30;99.90;;;;;;5011694;28;20166;-72
2022/05/22 08:15:15;;;;;;;4.80;2.10;;;16.50;99.90;;;;;;5011596;28;20974;-72
2022/05/22 08:17:40;;;;;;;2.33;1.27;;;16.30;99.90;;;;;;5010669;28;20857;-72
2022/05/22 08:20:15;;;;;;;5.57;1.50;;;16.90;99.90;;;;;;5011862;28;20439;-71
2022/05/22 08:22:44;;;;;;;2.30;0.83;;;17.10;99.90;;;;;;5011747;28;20249;-72
2022/05/22 08:25:10;;;;;;;6.53;1.13;;;17.00;99.90;;;;;;5011388;28;20402;-72
2022/05/22 08:27:35;;;;;;;1.30;1.20;;;17.10;99.90;;;;;;5011408;28;20476;-72
2022/05/22 08:30:01;;;;;;;1.90;1.13;;;16.60;99.90;;;;;;5014276;28;20412;-72
2022/05/22 08:32:26;;;;;;;0.90;0.80;;;16.80;99.90;;;;;;5014966;28;20182;-72
2022/05/22 08:34:54;;;;;;;2.00;1.40;;;16.90;99.90;;;;;;5011648;28;20573;-72
2022/05/22 08:37:19;;;;;;;2.00;1.50;;;17.10;99.90;;;;;;5011625;28;20664;-72
2022/05/22 08:39:45;;;;;;;2.80;1.10;;;17.00;99.90;;;;;;5011377;28;20419;-72
2022/05/22 08:42:18;;;;;;;1.10;1.00;;;16.90;99.90;;;;;;5011699;28;20179;-72
2022/05/22 08:44:50;;;;;;;2.63;1.20;;;17.10;99.90;;;;;;5011643;28;20210;-72
2022/05/22 08:47:22;;;;;;;5.43;1.23;;;17.70;99.90;;;;;;5011592;28;20521;-73
2022/05/22 08:50:00;;;;;;;1.87;0.90;;;19.00;99.90;;;;;;5011802;28;20415;-72
2022/05/22 08:52:36;;;;;;;1.90;0.70;;;19.40;99.90;;;;;;5011552;28;20411;-72
2022/05/22 08:58:56;;;;;;;0.70;0.70;;;18.30;99.90;;;;;;5011507;28;20411;-72
2022/05/22 09:01:15;;;;;;;1.37;1.13;;;17.80;99.90;;;;;;5011328;28;20479;-72
2022/05/22 09:04:08;;;;;;;1.73;0.90;;;17.60;99.90;;;;;;5014827;28;20405;-71
2022/05/22 09:06:43;;;;;;;1.57;0.90;;;17.80;99.90;;;;;;5014377;28;20981;-71
2022/05/22 09:09:09;;;;;;;1.60;0.93;;;17.90;99.90;;;;;;5014770;28;20931;-72
2022/05/22 09:11:43;;;;;;;2.10;1.00;;;17.80;99.90;;;;;;5014725;28;20634;-72
2022/05/22 09:14:15;;;;;;;0.70;0.70;;;17.00;99.90;;;;;;5014771;28;20166;-72
2022/05/22 09:16:51;;;;;;;1.00;0.90;;;17.00;99.90;;;;;;5014485;28;20426;-72
2022/05/22 09:19:37;;;;;;;1.40;0.90;;;17.10;99.90;;;;;;5014689;28;20769;-72
2022/05/22 09:22:18;;;;;;;4.67;1.27;;;16.60;99.90;;;;;;5014497;28;20826;-73
2022/05/22 09:25:20;;;;;;;2.10;1.03;;;17.20;99.90;;;;;;5014473;28;20408;-72
2022/05/22 09:28:14;;;;;;;1.33;1.00;;;17.30;99.90;;;;;;5014355;28;20972;-74
2022/05/22 09:31:13;;;;;;;1.23;1.00;;;17.70;99.90;;;;;;5007208;28;20790;-72
2022/05/22 09:34:06;;;;;;;2.13;0.90;;;17.30;99.90;;;;;;5008897;28;20782;-72
2022/05/22 09:36:44;;;;;;;2.30;0.90;;;16.80;99.90;;;;;;5014102;28;20435;-73
2022/05/22 09:39:34;;;;;;;2.40;1.13;;;17.50;99.90;;;;;;5014447;28;20408;-72
2022/05/22 09:42:32;;;;;;;1.60;0.97;;;18.10;99.90;;;;;;5014272;28;20784;-72
2022/05/22 09:45:15;;;;;;;0.77;0.77;;;18.60;99.90;;;;;;5014019;28;20425;-72
2022/05/22 09:48:17;;;;;;;0.90;0.90;;;17.60;99.90;;;;;;5013977;28;20455;-72
2022/05/22 09:51:11;;;;;;;2.10;1.20;;;17.80;99.90;;;;;;5014098;28;20491;-72
2022/05/22 09:53:59;;;;;;;0.83;0.80;;;18.30;99.90;;;;;;5008392;28;20411;-72
2022/05/22 09:56:47;;;;;;;1.37;0.80;;;18.60;99.90;;;;;;5013510;28;20781;-72
2022/05/22 09:59:49;;;;;;;1.93;0.97;;;17.70;99.90;;;;;;5013960;28;20412;-72
2022/05/22 10:02:27;;;;;;;1.00;0.80;;;18.40;99.90;;;;;;5012402;28;20421;-73
2022/05/22 10:05:11;;;;;;;1.20;0.90;;;18.00;99.90;;;;;;5013439;28;20478;-71
2022/05/22 10:08:07;;;;;;;3.40;1.13;;;17.90;99.90;;;;;;5013415;28;20485;-72
2022/05/22 10:10:55;;;;;;;3.37;1.17;;;17.60;99.90;;;;;;5013608;28;20775;-72
2022/05/22 10:13:45;;;;;;;1.53;0.97;;;18.40;99.90;;;;;;5012941;28;20412;-72
2022/05/22 10:16:29;;;;;;;0.80;0.70;;;18.90;99.90;;;;;;5012066;28;20501;-73
2022/05/22 10:19:09;;;;;;;1.60;1.10;;;19.00;99.90;;;;;;5013781;28;20548;-72
2022/05/22 10:21:48;;;;;;;4.10;1.07;;;18.50;99.90;;;;;;5013496;28;20452;-72
2022/05/22 10:24:25;;;;;;;1.77;0.80;;;18.90;99.90;;;;;;5013648;28;20500;-72
2022/05/22 10:27:17;;;;;;;0.70;0.70;;;18.80;99.90;;;;;;5013159;28;20472;-73
2022/05/22 10:30:02;;;;;;;1.00;0.90;;;19.60;99.90;;;;;;5013744;28;20413;-74
2022/05/22 10:32:39;;;;;;;2.30;1.00;;;19.60;99.90;;;;;;5013435;28;20432;-73
2022/05/22 10:35:22;;;;;;;1.47;0.90;;;19.10;99.90;;;;;;5013132;28;20450;-73
2022/05/22 10:37:53;;;;;;;0.90;0.90;;;19.50;99.90;;;;;;5013628;28;20429;-73
2022/05/22 10:40:22;;;;;;;1.30;1.20;;;19.70;99.90;;;;;;5014273;28;20416;-73
2022/05/22 10:42:52;;;;;;;1.67;0.83;;;19.40;99.90;;;;;;5014310;28;20446;-73
2022/05/22 10:45:25;;;;;;;1.33;0.97;;;19.20;99.90;;;;;;5014161;28;20920;-73
2022/05/22 10:47:53;;;;;;;0.80;0.80;;;18.50;99.90;;;;;;5014373;28;20453;-72
2022/05/22 10:50:24;;;;;;;3.13;0.90;;;18.60;99.90;;;;;;5013993;28;20408;-73
2022/05/22 10:52:49;;;;;;;2.40;1.00;;;18.70;99.90;;;;;;5012211;28;20439;-73
2022/05/22 10:55:23;;;;;;;3.93;1.23;;;18.80;99.90;;;;;;5012850;28;20423;-73
2022/05/22 10:57:58;;;;;;;0.80;0.80;;;18.80;99.90;;;;;;5013167;28;20250;-73
2022/05/22 11:00:24;;;;;;;1.17;0.70;;;18.80;99.90;;;;;;5012897;28;20789;-73
2022/05/22 11:02:50;;;;;;;0.83;0.60;;;18.90;99.90;;;;;;5012868;28;20488;-74
2022/05/22 11:05:22;;;;;;;4.27;1.00;;;19.30;99.90;;;;;;5012349;28;20485;-74
2022/05/22 11:07:51;;;;;;;1.67;0.80;;;19.60;99.90;;;;;;5012903;28;20282;-73
2022/05/22 11:10:33;;;;;;;0.90;0.70;;;19.50;99.90;;;;;;5012997;28;20417;-73
2022/05/22 11:13:01;;;;;;;1.43;0.90;;;19.50;99.90;;;;;;5012817;28;20769;-74
2022/05/22 11:15:30;;;;;;;2.80;0.90;;;19.70;99.90;;;;;;5012379;28;20783;-73
2022/05/22 11:18:11;;;;;;;0.93;0.83;;;19.40;99.90;;;;;;5012653;28;20442;-73
2022/05/22 11:20:44;;;;;;;0.73;0.70;;;19.20;99.90;;;;;;5012609;28;20499;-73
2022/05/22 11:23:33;;;;;;;1.70;0.80;;;19.00;99.90;;;;;;5012857;28;20421;-73
2022/05/22 11:26:32;;;;;;;0.77;0.63;;;18.90;99.90;;;;;;5011399;28;20405;-74
2022/05/22 11:29:07;;;;;;;1.53;1.03;;;18.60;99.90;;;;;;5012498;28;20914;-73
2022/05/22 11:32:00;;;;;;;4.47;1.00;;;18.80;99.90;;;;;;5012743;28;21012;-73
2022/05/22 11:34:51;;;;;;;2.20;0.97;;;18.50;99.90;;;;;;5012299;28;20758;-72
2022/05/22 11:37:36;;;;;;;1.53;0.90;;;19.30;99.90;;;;;;5012216;28;20511;-74
2022/05/22 11:40:32;;;;;;;0.70;0.70;;;19.80;99.90;;;;;;5011072;28;20420;-74
2022/05/22 11:43:24;;;;;;;1.03;0.80;;;19.60;99.90;;;;;;5012308;28;20418;-73
2022/05/22 11:46:05;;;;;;;1.27;1.07;;;19.70;99.90;;;;;;5011894;28;20785;-74
2022/05/22 11:49:16;;;;;;;1.13;0.90;;;19.90;99.90;;;;;;5011932;28;20775;-74
2022/05/22 11:51:56;;;;;;;1.27;1.10;;;19.60;99.90;;;;;;5012147;28;20403;-74
2022/05/22 11:54:55;;;;;;;1.07;0.97;;;19.80;99.50;;;;;;5011991;28;20401;-73
2022/05/22 11:57:34;;;;;;;1.20;1.00;;;19.80;97.50;;;;;;5010741;28;20439;-73
2022/05/22 12:00:15;;;;;;;0.97;0.73;;;19.40;99.20;;;;;;5012201;28;20402;-74
2022/05/22 12:03:07;;;;;;;1.10;0.90;;;19.00;98.20;;;;;;5012089;28;20403;-74
2022/05/22 12:05:50;;;;;;;1.00;0.80;;;19.00;98.80;;;;;;5011649;28;20444;-73
2022/05/22 12:08:23;;;;;;;2.43;0.77;;;19.50;98.80;;;;;;5011848;28;20482;-74
2022/05/22 12:10:57;;;;;;;0.97;0.73;;;19.00;97.60;;;;;;5011704;28;20419;-74
2022/05/22 12:13:29;;;;;;;2.40;0.90;;;19.00;99.00;;;;;;5012299;28;20891;-74
2022/05/22 12:16:09;;;;;;;1.13;0.80;;;19.50;99.90;;;;;;5011415;28;20400;-73
2022/05/22 12:18:42;;;;;;;0.80;0.70;;;19.30;99.00;;;;;;5011610;28;20399;-73
2022/05/22 12:21:48;;;;;;;2.63;1.10;;;19.10;98.20;;;;;;5011613;28;20949;-72
2022/05/22 12:24:31;;;;;;;3.53;1.47;;;19.50;98.80;;;;;;4999819;28;21022;-72
2022/05/22 12:26:58;;;;;;;1.23;0.93;;;19.50;98.10;;;;;;5011239;28;20469;-73
2022/05/22 12:29:31;;;;;;;2.77;1.37;;;19.00;98.60;;;;;;5011677;28;20400;-73
2022/05/22 12:31:59;;;;;;;1.63;1.33;;;19.40;99.20;;;;;;5011317;28;20407;-73
2022/05/22 12:34:48;;;;;;;1.27;0.80;;;19.50;97.10;;;;;;5011433;28;20404;-73
2022/05/22 12:37:37;;;;;;;0.80;0.70;;;19.60;95.60;;;;;;5014736;28;20448;-73
2022/05/22 12:40:32;;;;;;;1.00;1.00;;;19.10;96.90;;;;;;5015154;28;20476;-73
2022/05/22 12:43:00;;;;;;;1.33;0.70;;;19.60;96.90;;;;;;5015110;28;20399;-73
2022/05/22 12:45:28;;;;;;;1.27;1.10;;;19.70;97.10;;;;;;5014642;28;20403;-73
2022/05/22 12:47:55;;;;;;;1.37;1.00;;;19.70;97.40;;;;;;5014911;28;20465;-74
2022/05/22 12:50:26;;;;;;;1.17;0.80;;;19.80;96.80;;;;;;5015095;28;20403;-73
2022/05/22 12:52:53;;;;;;;1.43;0.73;;;19.60;96.10;;;;;;5015036;28;20872;-73
2022/05/22 12:55:30;;;;;;;3.67;1.07;;;19.30;95.80;;;;;;5014725;28;20403;-72
2022/05/22 12:57:58;;;;;;;1.03;0.93;;;19.20;97.10;;;;;;5014718;28;20420;-73
2022/05/22 13:00:36;;;;;;;1.60;1.50;;;19.10;97.50;;;;;;5014855;28;20434;-74
2022/05/22 13:03:18;;;;;;;1.10;1.00;;;19.70;97.30;;;;;;5015175;28;20418;-73
2022/05/22 13:06:05;;;;;;;1.70;1.60;;;19.80;97.50;;;;;;5014633;28;20406;-73
2022/05/22 13:08:44;;;;;;;1.40;1.20;;;20.10;97.10;;;;;;5014799;28;20830;-73
2022/05/22 13:11:15;;;;;;;1.20;1.00;;;20.40;97.50;;;;;;5014732;28;20398;-73
2022/05/22 13:13:50;;;;;;;1.07;0.90;;;19.70;97.30;;;;;;5014689;28;20396;-73
2022/05/22 13:16:32;;;;;;;3.63;1.10;;;19.20;97.50;;;;;;5014458;28;20426;-74
2022/05/22 13:18:57;;;;;;;1.33;1.23;;;19.60;97.30;;;;;;5014645;28;20395;-74
2022/05/22 13:21:35;;;;;;;1.07;0.97;;;19.70;95.60;;;;;;5014831;28;20740;-73
2022/05/22 13:24:06;;;;;;;1.37;0.90;;;19.40;96.30;;;;;;5014919;28;20562;-74
2022/05/22 13:26:33;;;;;;;0.80;0.80;;;19.40;96.10;;;;;;5014585;28;20536;-73
2022/05/22 13:29:07;;;;;;;1.30;1.10;;;19.30;95.60;;;;;;5049480;22;20486;-69